Time,TemperatureF,DewpointF,PressureIn,WindDirection,WindDirectionDegrees,WindSpeedMPH,WindSpeedGustMPH,Humidity,HourlyPrecipIn,Conditions,Clouds,dailyrainin,SoftwareType,DateUTC
2013-03-16 00:09:00,55.8,15.3,29.80,SE,135,2.7,-999.0,20,-99.99,,,0.00,Acu-Link.com,2013-03-16 06:09:00,
2013-03-16 00:24:00,55.0,15.8,29.80,SSE,157,0.0,-999.0,21,-99.99,,,0.00,Acu-Link.com,2013-03-16 06:24:00,
2013-03-16 00:39:00,54.1,16.2,29.80,ESE,112,2.7,-999.0,22,-99.99,,,0.00,Acu-Link.com,2013-03-16 06:39:00,
2013-03-16 00:55:00,53.8,15.8,29.80,ESE,112,3.8,-999.0,22,-99.99,,,0.00,Acu-Link.com,2013-03-16 06:55:00,
2013-03-16 01:10:00,53.2,16.4,29.80,NE,45,1.1,-999.0,23,-99.99,,,0.00,Acu-Link.com,2013-03-16 07:10:00,
2013-03-16 01:25:00,52.3,15.7,29.80,SSE,157,2.7,-999.0,23,-99.99,,,0.00,Acu-Link.com,2013-03-16 07:25:00,
2013-03-16 01:40:00,51.4,15.9,29.80,East,90,3.1,-999.0,24,-99.99,,,0.00,Acu-Link.com,2013-03-16 07:40:00,
2013-03-16 01:55:00,50.7,15.3,29.80,East,90,0.0,-999.0,24,-99.99,,,0.00,Acu-Link.com,2013-03-16 07:55:00,
2013-03-16 02:11:00,49.6,16.2,29.81,ESE,112,0.0,-999.0,26,-99.99,,,0.00,Acu-Link.com,2013-03-16 08:11:00,
2013-03-16 02:41:00,48.6,17.0,29.81,West,270,1.6,-999.0,28,-99.99,,,0.00,Acu-Link.com,2013-03-16 08:41:00,
2013-03-16 02:56:00,49.3,17.6,29.80,SSW,202,0.0,-999.0,28,-99.99,,,0.00,Acu-Link.com,2013-03-16 08:56:00,
2013-03-16 03:11:00,47.7,17.0,29.80,West,270,0.0,-999.0,29,-99.99,,,0.00,Acu-Link.com,2013-03-16 09:11:00,
2013-03-16 03:27:00,46.8,17.0,29.80,WNW,292,1.6,-999.0,30,-99.99,,,0.00,Acu-Link.com,2013-03-16 09:27:00,
2013-03-16 03:42:00,46.8,17.0,29.80,West,270,1.6,-999.0,30,-99.99,,,0.00,Acu-Link.com,2013-03-16 09:42:00,
2013-03-16 03:57:00,46.8,16.2,29.80,WSW,247,0.0,-999.0,29,-99.99,,,0.00,Acu-Link.com,2013-03-16 09:57:00,
2013-03-16 04:12:00,46.4,15.9,29.80,WSW,247,0.0,-999.0,29,-99.99,,,0.00,Acu-Link.com,2013-03-16 10:12:00,
2013-03-16 04:27:00,45.9,16.2,29.79,NNW,337,0.0,-999.0,30,-99.99,,,0.00,Acu-Link.com,2013-03-16 10:27:00,
2013-03-16 04:43:00,45.1,16.3,29.79,WNW,292,0.0,-999.0,31,-99.99,,,0.00,Acu-Link.com,2013-03-16 10:43:00,
2013-03-16 04:58:00,44.4,16.4,29.78,SSW,202,0.0,-999.0,32,-99.99,,,0.00,Acu-Link.com,2013-03-16 10:58:00,
2013-03-16 05:13:00,43.9,16.7,29.78,WNW,292,0.0,-999.0,33,-99.99,,,0.00,Acu-Link.com,2013-03-16 11:13:00,
2013-03-16 05:28:00,43.3,16.2,29.79,ESE,112,0.0,-999.0,33,-99.99,,,0.00,Acu-Link.com,2013-03-16 11:28:00,
2013-03-16 05:44:00,42.8,16.4,29.79,West,270,0.0,-999.0,34,-99.99,,,0.00,Acu-Link.com,2013-03-16 11:44:00,
2013-03-16 05:59:00,44.8,18.1,29.79,South,180,2.2,-999.0,34,-99.99,,,0.00,Acu-Link.com,2013-03-16 11:59:00,
2013-03-16 06:14:00,45.5,18.8,29.79,ENE,67,1.1,-999.0,34,-99.99,,,0.00,Acu-Link.com,2013-03-16 12:14:00,
2013-03-16 06:29:00,44.1,18.2,29.79,West,270,1.6,-999.0,35,-99.99,,,0.00,Acu-Link.com,2013-03-16 12:29:00,
2013-03-16 06:44:00,43.2,18.0,29.78,ESE,112,0.0,-999.0,36,-99.99,,,0.00,Acu-Link.com,2013-03-16 12:44:00,
2013-03-16 07:00:00,42.6,18.2,29.79,West,270,0.0,-999.0,37,-99.99,,,0.00,Acu-Link.com,2013-03-16 13:00:00,
2013-03-16 07:15:00,42.6,18.2,29.79,WSW,247,0.0,-999.0,37,-99.99,,,0.00,Acu-Link.com,2013-03-16 13:15:00,
2013-03-16 07:30:00,42.3,18.5,29.78,SW,225,0.0,-999.0,38,-99.99,,,0.00,Acu-Link.com,2013-03-16 13:30:00,
2013-03-16 07:45:00,44.8,20.1,29.79,WSW,247,0.0,-999.0,37,-99.99,,,0.00,Acu-Link.com,2013-03-16 13:45:00,
2013-03-16 08:00:00,49.3,22.1,29.78,NW,315,0.0,-999.0,34,-99.99,,,0.00,Acu-Link.com,2013-03-16 14:00:00,
2013-03-16 08:16:00,55.0,22.5,29.79,South,180,0.0,-999.0,28,-99.99,,,0.00,Acu-Link.com,2013-03-16 14:16:00,
2013-03-16 08:46:00,58.8,22.1,29.79,SSE,157,3.1,-999.0,24,-99.99,,,0.00,Acu-Link.com,2013-03-16 14:46:00,
2013-03-16 09:01:00,55.8,22.3,29.79,SSE,157,5.1,-999.0,27,-99.99,,,0.00,Acu-Link.com,2013-03-16 15:01:00,
2013-03-16 09:16:00,55.9,22.5,29.80,SSE,157,3.8,-999.0,27,-99.99,,,0.00,Acu-Link.com,2013-03-16 15:16:00,
2013-03-16 09:32:00,58.3,23.6,29.80,SSE,157,0.0,-999.0,26,-99.99,,,0.00,Acu-Link.com,2013-03-16 15:32:00,
2013-03-16 09:47:00,59.4,23.5,29.80,SSW,202,2.2,-999.0,25,-99.99,,,0.00,Acu-Link.com,2013-03-16 15:47:00,
2013-03-16 10:02:00,61.3,24.2,29.80,SW,225,2.2,-999.0,24,-99.99,,,0.00,Acu-Link.com,2013-03-16 16:02:00,
2013-03-16 10:17:00,64.0,25.5,29.79,South,180,1.1,-999.0,23,-99.99,,,0.00,Acu-Link.com,2013-03-16 16:17:00,
2013-03-16 10:33:00,65.1,25.3,29.79,SW,225,2.2,-999.0,22,-99.99,,,0.00,Acu-Link.com,2013-03-16 16:33:00,
2013-03-16 10:48:00,65.8,25.9,29.79,South,180,4.3,-999.0,22,-99.99,,,0.00,Acu-Link.com,2013-03-16 16:48:00,
2013-03-16 11:03:00,66.4,25.3,29.79,West,270,3.8,-999.0,21,-99.99,,,0.00,Acu-Link.com,2013-03-16 17:03:00,
2013-03-16 11:18:00,66.4,25.3,29.79,West,270,3.8,-999.0,21,-99.99,,,0.00,Acu-Link.com,2013-03-16 17:18:00,
2013-03-16 11:33:00,67.5,26.2,29.79,SSE,157,0.0,-999.0,21,-99.99,,,0.00,Acu-Link.com,2013-03-16 17:33:00,
2013-03-16 11:49:00,69.1,26.3,29.79,SSE,157,4.7,-999.0,20,-99.99,,,0.00,Acu-Link.com,2013-03-16 17:49:00,
2013-03-16 12:04:00,68.5,25.9,29.77,WSW,247,3.8,-999.0,20,-99.99,,,0.00,Acu-Link.com,2013-03-16 18:04:00,
2013-03-16 12:19:00,69.6,26.8,29.76,SW,225,3.1,-999.0,20,-99.99,,,0.00,Acu-Link.com,2013-03-16 18:19:00,
2013-03-16 12:34:00,72.3,27.7,29.76,SW,225,5.1,-999.0,19,-99.99,,,0.00,Acu-Link.com,2013-03-16 18:34:00,
2013-03-16 12:49:00,72.0,27.5,29.76,West,270,7.8,-999.0,19,-99.99,,,0.00,Acu-Link.com,2013-03-16 18:49:00,
2013-03-16 13:05:00,71.8,27.3,29.75,SW,225,3.8,-999.0,19,-99.99,,,0.00,Acu-Link.com,2013-03-16 19:05:00,
2013-03-16 13:20:00,71.6,27.2,29.74,West,270,4.3,-999.0,19,-99.99,,,0.00,Acu-Link.com,2013-03-16 19:20:00,
2013-03-16 13:35:00,72.1,26.3,29.73,West,270,8.9,-999.0,18,-99.99,,,0.00,Acu-Link.com,2013-03-16 19:35:00,
2013-03-16 13:51:00,72.5,26.6,29.71,WSW,247,5.1,-999.0,18,-99.99,,,0.00,Acu-Link.com,2013-03-16 19:51:00,
2013-03-16 14:21:00,71.4,25.7,29.69,West,270,4.7,-999.0,18,-99.99,,,0.00,Acu-Link.com,2013-03-16 20:21:00,
2013-03-16 14:36:00,71.8,26.0,29.69,West,270,6.7,-999.0,18,-99.99,,,0.00,Acu-Link.com,2013-03-16 20:36:00,
2013-03-16 14:51:00,72.0,26.1,29.67,WSW,247,8.9,-999.0,18,-99.99,,,0.00,Acu-Link.com,2013-03-16 20:51:00,
2013-03-16 15:22:00,71.8,26.0,29.66,WSW,247,6.3,-999.0,18,-99.99,,,0.00,Acu-Link.com,2013-03-16 21:22:00,
2013-03-16 15:37:00,71.8,24.6,29.66,WSW,247,5.1,-999.0,17,-99.99,,,0.00,Acu-Link.com,2013-03-16 21:37:00,
2013-03-16 15:52:00,72.3,25.1,29.64,SW,225,3.1,-999.0,17,-99.99,,,0.00,Acu-Link.com,2013-03-16 21:52:00,
2013-03-16 16:07:00,73.8,24.8,29.64,SW,225,11.4,-999.0,16,-99.99,,,0.00,Acu-Link.com,2013-03-16 22:07:00,
2013-03-16 16:23:00,73.9,24.9,29.63,West,270,13.4,-999.0,16,-99.99,,,0.00,Acu-Link.com,2013-03-16 22:23:00,
2013-03-16 16:38:00,74.1,25.1,29.62,West,270,15.0,-999.0,16,-99.99,,,0.00,Acu-Link.com,2013-03-16 22:38:00,
2013-03-16 16:53:00,75.2,25.9,29.62,West,270,6.3,-999.0,16,-99.99,,,0.00,Acu-Link.com,2013-03-16 22:53:00,
2013-03-16 17:08:00,73.9,23.4,29.61,WSW,247,7.4,-999.0,15,-99.99,,,0.00,Acu-Link.com,2013-03-16 23:08:00,
2013-03-16 17:23:00,73.6,23.1,29.61,West,270,8.9,-999.0,15,-99.99,,,0.00,Acu-Link.com,2013-03-16 23:23:00,
2013-03-16 17:39:00,74.7,23.9,29.61,West,270,10.3,-999.0,15,-99.99,,,0.00,Acu-Link.com,2013-03-16 23:39:00,
2013-03-16 17:54:00,73.9,23.4,29.60,West,270,9.8,-999.0,15,-99.99,,,0.00,Acu-Link.com,2013-03-16 23:54:00,
2013-03-16 18:09:00,72.9,22.5,29.60,WSW,247,6.7,-999.0,15,-99.99,,,0.00,Acu-Link.com,2013-03-17 00:09:00,
2013-03-16 18:24:00,72.0,21.8,29.60,WNW,292,9.4,-999.0,15,-99.99,,,0.00,Acu-Link.com,2013-03-17 00:24:00,
2013-03-16 18:40:00,71.2,21.2,29.61,West,270,10.3,-999.0,15,-99.99,,,0.00,Acu-Link.com,2013-03-17 00:40:00,
2013-03-16 18:55:00,70.7,20.8,29.61,WSW,247,6.7,-999.0,15,-99.99,,,0.00,Acu-Link.com,2013-03-17 00:55:00,
2013-03-16 19:10:00,68.0,26.6,29.63,NW,315,15.4,-999.0,21,-99.99,,,0.00,Acu-Link.com,2013-03-17 01:10:00,
2013-03-16 19:25:00,67.3,28.2,29.63,NW,315,13.4,-999.0,23,-99.99,,,0.00,Acu-Link.com,2013-03-17 01:25:00,
2013-03-16 19:40:00,65.1,30.3,29.64,NNW,337,15.4,-999.0,27,-99.99,,,0.00,Acu-Link.com,2013-03-17 01:40:00,
2013-03-16 19:56:00,63.3,33.0,29.63,WNW,292,16.1,-999.0,32,-99.99,,,0.00,Acu-Link.com,2013-03-17 01:56:00,
2013-03-16 20:56:00,61.2,32.6,29.65,WNW,292,8.9,-999.0,34,-99.99,,,0.00,Acu-Link.com,2013-03-17 02:56:00,
2013-03-16 21:12:00,61.0,32.4,29.65,NW,315,12.5,-999.0,34,-99.99,,,0.00,Acu-Link.com,2013-03-17 03:12:00,
2013-03-16 21:27:00,60.8,33.0,29.65,NW,315,8.3,-999.0,35,-99.99,,,0.00,Acu-Link.com,2013-03-17 03:27:00,
2013-03-16 21:42:00,60.4,32.7,29.66,NNE,22,5.1,-999.0,35,-99.99,,,0.00,Acu-Link.com,2013-03-17 03:42:00,
2013-03-16 21:57:00,60.1,32.3,29.67,West,270,1.6,-999.0,35,-99.99,,,0.00,Acu-Link.com,2013-03-17 03:57:00,
2013-03-16 22:12:00,59.9,32.9,29.69,WNW,292,5.1,-999.0,36,-99.99,,,0.00,Acu-Link.com,2013-03-17 04:12:00,
2013-03-16 22:28:00,59.2,34.2,29.73,WNW,292,10.3,-999.0,39,-99.99,,,0.00,Acu-Link.com,2013-03-17 04:28:00,
2013-03-16 22:43:00,55.0,37.2,29.75,NW,315,12.5,-999.0,51,-99.99,,,0.00,Acu-Link.com,2013-03-17 04:43:00,
2013-03-16 22:58:00,53.6,36.9,29.74,WNW,292,12.5,-999.0,53,-99.99,,,0.00,Acu-Link.com,2013-03-17 04:58:00,
2013-03-16 23:13:00,53.1,36.4,29.74,NW,315,8.9,-999.0,53,-99.99,,,0.00,Acu-Link.com,2013-03-17 05:13:00,
2013-03-16 23:28:00,52.9,36.2,29.76,WSW,247,7.8,-999.0,53,-99.99,,,0.00,Acu-Link.com,2013-03-17 05:28:00,
2013-03-16 23:44:00,52.7,36.1,29.76,NE,45,2.7,-999.0,53,-99.99,,,0.00,Acu-Link.com,2013-03-17 05:44:00,
2013-03-16 23:59:00,52.2,36.0,29.75,NE,45,4.3,-999.0,54,-99.99,,,0.00,Acu-Link.com,2013-03-17 05:59:00,